createdAt,value
2023-02-11T00:00:33.744Z,-0.90
2023-02-11T00:03:21.481Z,-0.80
2023-02-11T00:06:10.368Z,-0.80
2023-02-11T00:08:58.098Z,-0.70
2023-02-11T00:11:45.741Z,-0.70
2023-02-11T00:14:34.712Z,-0.60
2023-02-11T00:17:22.718Z,-0.50
2023-02-11T00:20:11.209Z,-0.40
2023-02-11T00:22:58.813Z,-0.30
2023-02-11T00:25:47.130Z,-0.20
2023-02-11T00:28:34.517Z,-0.10
2023-02-11T00:31:24.436Z,0.00
2023-02-11T00:34:12.014Z,0.10
2023-02-11T00:36:59.784Z,0.10
2023-02-11T00:39:47.253Z,0.20
2023-02-11T00:42:35.937Z,0.30
2023-02-11T00:45:23.221Z,0.30
2023-02-11T00:48:12.051Z,0.30
2023-02-11T00:50:59.650Z,0.30
2023-02-11T00:53:47.120Z,0.40
2023-02-11T00:56:34.516Z,0.40
2023-02-11T00:59:22.001Z,0.40
2023-02-11T01:02:09.307Z,0.40
2023-02-11T01:04:59.688Z,0.40
2023-02-11T01:07:47.338Z,0.40
2023-02-11T01:10:34.999Z,0.40
2023-02-11T01:13:22.935Z,0.40
2023-02-11T01:16:11.979Z,0.40
2023-02-11T01:18:59.718Z,0.30
2023-02-11T01:21:48.823Z,0.30
2023-02-11T01:24:36.384Z,0.20
2023-02-11T01:27:23.620Z,0.20
2023-02-11T01:30:13.779Z,0.10
2023-02-11T01:33:01.497Z,0.10
2023-02-11T01:35:51.069Z,0.10
2023-02-11T01:38:41.146Z,0.10
2023-02-11T01:41:29.086Z,0.00
2023-02-11T01:44:30.206Z,0.00
2023-02-11T01:47:17.810Z,0.00
2023-02-11T01:50:08.709Z,0.10
2023-02-11T01:53:16.975Z,0.10
2023-02-11T01:56:26.946Z,0.10
2023-02-11T01:59:19.319Z,0.10
2023-02-11T02:02:10.783Z,0.10
2023-02-11T02:05:05.690Z,0.10
2023-02-11T02:08:01.458Z,0.10
2023-02-11T02:10:54.720Z,0.10
2023-02-11T02:13:43.908Z,0.10
2023-02-11T02:16:34.948Z,0.10
2023-02-11T02:20:08.439Z,0.10
2023-02-11T02:23:29.581Z,0.10
2023-02-11T02:26:48.010Z,0.10
2023-02-11T02:30:08.827Z,0.10
2023-02-11T02:33:23.428Z,0.10
2023-02-11T02:36:19.397Z,0.10
2023-02-11T02:39:11.217Z,0.20
2023-02-11T02:41:59.319Z,0.20
2023-02-11T02:44:50.076Z,0.20
2023-02-11T02:47:37.807Z,0.30
2023-02-11T02:50:31.646Z,0.40
2023-02-11T02:53:27.969Z,0.50
2023-02-11T02:56:24.870Z,0.60
2023-02-11T02:59:26.520Z,0.70
2023-02-11T03:02:19.130Z,0.90
2023-02-11T03:05:13.103Z,1.00
2023-02-11T03:08:08.481Z,1.20
2023-02-11T03:10:57.674Z,1.20
2023-02-11T03:13:47.653Z,1.30
2023-02-11T03:16:39.292Z,1.50
2023-02-11T03:19:30.860Z,1.50
2023-02-11T03:22:23.148Z,1.60
2023-02-11T03:25:12.177Z,1.60
2023-02-11T03:28:09.346Z,1.70
2023-02-11T03:31:03.588Z,1.70
2023-02-11T03:34:09.618Z,1.80
2023-02-11T03:37:01.825Z,1.80
2023-02-11T03:39:54.903Z,1.80
2023-02-11T03:42:47.310Z,1.90
2023-02-11T03:45:37.439Z,1.80
2023-02-11T03:48:29.632Z,1.80
2023-02-11T03:51:18.200Z,1.80
2023-02-11T03:54:10.470Z,1.90
2023-02-11T03:57:00.537Z,1.80
2023-02-11T03:59:54.307Z,1.80
2023-02-11T04:02:42.893Z,1.80
2023-02-11T04:05:31.190Z,1.80
2023-02-11T04:08:18.518Z,1.80
2023-02-11T04:11:06.351Z,1.80
2023-02-11T04:13:53.768Z,1.70
2023-02-11T04:16:42.632Z,1.80
2023-02-11T04:19:30.050Z,1.80
2023-02-11T04:22:17.710Z,1.80
2023-02-11T04:25:05.511Z,1.90
2023-02-11T04:27:52.978Z,1.80
2023-02-11T04:30:40.371Z,1.80
2023-02-11T04:33:29.395Z,1.80
2023-02-11T04:36:17.042Z,1.80
2023-02-11T04:39:05.178Z,1.80
2023-02-11T04:41:52.770Z,1.80
2023-02-11T04:44:40.161Z,1.80
2023-02-11T04:47:27.846Z,1.90
2023-02-11T04:50:16.908Z,1.90
2023-02-11T04:53:04.539Z,2.00
2023-02-11T04:55:52.582Z,1.90
2023-02-11T04:58:40.318Z,1.90
2023-02-11T05:01:27.857Z,1.90
2023-02-11T05:04:15.348Z,1.90
2023-02-11T05:07:04.525Z,1.90
2023-02-11T05:09:52.381Z,1.90
2023-02-11T05:12:39.928Z,1.90
2023-02-11T05:15:27.434Z,1.90
2023-02-11T05:18:15.678Z,1.90
2023-02-11T05:21:07.982Z,2.00
2023-02-11T05:23:56.817Z,2.00
2023-02-11T05:26:44.508Z,2.00
2023-02-11T05:29:33.550Z,2.00
2023-02-11T05:32:20.949Z,2.00
2023-02-11T05:35:09.309Z,2.10
2023-02-11T05:37:56.898Z,2.10
2023-02-11T05:40:45.807Z,2.20
2023-02-11T05:43:35.521Z,2.20
2023-02-11T05:46:23.048Z,2.20
2023-02-11T05:49:10.827Z,2.20
2023-02-11T05:51:58.492Z,2.20
2023-02-11T05:54:45.734Z,2.20
2023-02-11T05:57:34.548Z,2.10
2023-02-11T06:00:22.650Z,2.10
2023-02-11T06:03:10.044Z,2.20
2023-02-11T06:05:57.623Z,2.10
2023-02-11T06:08:45.154Z,2.20
2023-02-11T06:11:33.149Z,2.20
2023-02-11T06:14:21.925Z,2.20
2023-02-11T06:17:09.243Z,2.20
2023-02-11T06:19:57.072Z,2.20
2023-02-11T06:22:44.873Z,2.20
2023-02-11T06:25:32.279Z,2.30
2023-02-11T06:28:19.867Z,2.30
2023-02-11T06:31:09.863Z,2.40
2023-02-11T06:33:58.549Z,2.40
2023-02-11T06:36:46.286Z,2.40
2023-02-11T06:39:34.072Z,2.50
2023-02-11T06:42:21.832Z,2.50
2023-02-11T06:45:11.198Z,2.50
2023-02-11T06:48:00.340Z,2.50
2023-02-11T06:50:47.903Z,2.50
2023-02-11T06:53:37.817Z,2.60
2023-02-11T06:56:27.452Z,2.60
2023-02-11T06:59:18.084Z,2.60
2023-02-11T07:02:05.794Z,2.60
2023-02-11T07:04:54.701Z,2.70
2023-02-11T07:07:42.060Z,2.70
2023-02-11T07:10:29.465Z,2.80
2023-02-11T07:13:17.198Z,2.80
2023-02-11T07:16:07.226Z,2.80
2023-02-11T07:18:54.601Z,2.80
2023-02-11T07:21:43.898Z,2.90
2023-02-11T07:24:31.653Z,2.90
2023-02-11T07:27:19.153Z,2.90
2023-02-11T07:30:07.586Z,2.90
2023-02-11T07:32:55.136Z,2.90
2023-02-11T07:35:42.824Z,2.90
2023-02-11T07:38:33.201Z,3.00
2023-02-11T07:41:22.909Z,3.00
2023-02-11T07:44:10.678Z,3.00
2023-02-11T07:46:58.182Z,3.00
2023-02-11T07:49:46.477Z,3.00
2023-02-11T07:52:34.272Z,3.10
2023-02-11T07:55:23.249Z,3.10
2023-02-11T07:58:10.741Z,3.10
2023-02-11T08:01:02.659Z,3.20
2023-02-11T08:03:50.606Z,3.30
2023-02-11T08:06:42.443Z,3.30
2023-02-11T08:09:32.196Z,3.40
2023-02-11T08:12:22.268Z,3.50
2023-02-11T08:15:10.365Z,3.60
2023-02-11T08:17:57.578Z,3.70
2023-02-11T08:20:45.078Z,3.90
2023-02-11T08:23:32.609Z,3.90
2023-02-11T08:26:21.606Z,4.00
2023-02-11T08:29:13.431Z,4.10
2023-02-11T08:32:01.349Z,4.20
2023-02-11T08:34:52.262Z,4.20
2023-02-11T08:37:40.098Z,4.30
2023-02-11T08:40:27.867Z,4.40
2023-02-11T08:43:15.438Z,4.40
2023-02-11T08:46:04.780Z,4.40
2023-02-11T08:48:52.726Z,4.60
2023-02-11T08:51:40.424Z,4.60
2023-02-11T08:54:27.855Z,4.60
2023-02-11T08:57:15.410Z,4.60
2023-02-11T09:00:03.214Z,4.60
2023-02-11T09:02:52.378Z,4.70
2023-02-11T09:05:43.168Z,4.70
2023-02-11T09:08:30.717Z,4.70
2023-02-11T09:11:19.429Z,4.80
2023-02-11T09:14:06.942Z,4.80
2023-02-11T09:16:54.788Z,4.80
2023-02-11T09:19:43.533Z,4.80
2023-02-11T09:22:31.376Z,4.80
2023-02-11T09:25:19.054Z,4.90
2023-02-11T09:28:06.536Z,4.90
2023-02-11T09:30:54.717Z,5.00
2023-02-11T09:33:48.052Z,5.10
2023-02-11T09:36:39.122Z,5.00
2023-02-11T09:39:27.568Z,5.10
2023-02-11T09:42:38.807Z,5.10
2023-02-11T09:45:29.101Z,5.20
2023-02-11T09:48:19.390Z,5.20
2023-02-11T09:51:14.164Z,5.20
2023-02-11T09:54:13.196Z,5.30
2023-02-11T09:57:00.883Z,5.40
2023-02-11T09:59:49.361Z,5.40
2023-02-11T10:02:48.712Z,5.40
2023-02-11T10:05:52.053Z,5.40
2023-02-11T10:08:48.802Z,5.40
2023-02-11T10:11:43.265Z,5.40
2023-02-11T10:14:54.650Z,5.50
2023-02-11T10:17:53.070Z,5.50
2023-02-11T10:20:47.063Z,5.50
2023-02-11T10:23:37.913Z,5.50
2023-02-11T10:26:28.284Z,5.60
2023-02-11T10:29:30.039Z,5.70
2023-02-11T10:32:30.979Z,5.80
2023-02-11T10:35:21.475Z,5.90
2023-02-11T10:38:10.269Z,6.00
2023-02-11T10:40:57.893Z,6.00
2023-02-11T10:43:45.592Z,6.00
2023-02-11T10:46:40.235Z,6.00
2023-02-11T10:49:40.473Z,6.00
2023-02-11T10:52:30.651Z,6.00
2023-02-11T10:55:20.873Z,5.90
2023-02-11T10:58:08.448Z,6.00
2023-02-11T11:00:58.195Z,6.10
2023-02-11T11:03:51.663Z,6.10
2023-02-11T11:06:39.147Z,6.10
2023-02-11T11:09:30.714Z,6.00
2023-02-11T11:12:33.608Z,6.00
2023-02-11T11:15:24.551Z,5.90
2023-02-11T11:18:22.167Z,5.90
2023-02-11T11:21:17.067Z,5.90
2023-02-11T11:24:05.371Z,5.90
2023-02-11T11:26:55.353Z,6.00
2023-02-11T11:29:48.824Z,6.00
2023-02-11T11:32:37.313Z,6.10
2023-02-11T11:35:29.312Z,6.10
2023-02-11T11:38:18.361Z,6.20
2023-02-11T11:41:26.588Z,6.30
2023-02-11T11:44:25.744Z,6.40
2023-02-11T11:47:26.013Z,6.40
2023-02-11T11:50:26.312Z,6.30
2023-02-11T11:53:21.993Z,6.20
2023-02-11T11:56:15.354Z,6.20
2023-02-11T11:59:11.585Z,6.20
2023-02-11T12:02:12.829Z,6.20
2023-02-11T12:05:10.702Z,6.20
2023-02-11T12:08:11.543Z,6.20
2023-02-11T12:11:09.093Z,6.20
2023-02-11T12:14:11.280Z,6.20
2023-02-11T12:17:05.853Z,6.20
2023-02-11T12:20:02.879Z,6.20
2023-02-11T12:23:03.694Z,6.20
2023-02-11T12:25:58.115Z,6.20
2023-02-11T12:28:59.901Z,6.20
2023-02-11T12:31:59.627Z,6.30
2023-02-11T12:35:16.977Z,6.30
2023-02-11T12:38:33.468Z,6.30
2023-02-11T12:41:56.785Z,6.20
2023-02-11T12:44:59.873Z,6.30
2023-02-11T12:48:00.714Z,6.30
2023-02-11T12:50:57.648Z,6.30
2023-02-11T12:54:13.539Z,6.30
2023-02-11T12:57:04.568Z,6.30
2023-02-11T12:59:59.776Z,6.40
2023-02-11T13:02:55.007Z,6.40
2023-02-11T13:05:46.903Z,6.40
2023-02-11T13:08:37.384Z,6.40
2023-02-11T13:11:28.784Z,6.40
2023-02-11T13:14:24.392Z,6.40
2023-02-11T13:17:21.615Z,6.40
2023-02-11T13:20:21.670Z,6.40
2023-02-11T13:23:20.113Z,6.30
2023-02-11T13:26:14.206Z,6.30
2023-02-11T13:29:15.666Z,6.40
2023-02-11T13:32:11.782Z,6.40
2023-02-11T13:35:00.964Z,6.40
2023-02-11T13:37:49.236Z,6.40
2023-02-11T13:40:38.314Z,6.40
2023-02-11T13:43:28.965Z,6.30
2023-02-11T13:46:17.234Z,6.30
2023-02-11T13:49:04.842Z,6.30
2023-02-11T13:51:54.657Z,6.20
2023-02-11T13:54:42.717Z,6.20
2023-02-11T13:57:38.827Z,6.20
2023-02-11T14:00:51.174Z,6.20
2023-02-11T14:03:57.683Z,6.20
2023-02-11T14:07:45.329Z,6.30
2023-02-11T14:10:51.487Z,6.20
2023-02-11T14:14:16.107Z,6.20
2023-02-11T14:17:34.551Z,6.20
2023-02-11T14:20:37.956Z,6.10
2023-02-11T14:23:31.264Z,6.10
2023-02-11T14:26:32.555Z,6.10
2023-02-11T14:29:28.987Z,6.10
2023-02-11T14:32:33.909Z,6.10
2023-02-11T14:35:29.169Z,6.10
2023-02-11T14:38:26.001Z,6.00
2023-02-11T14:41:21.944Z,6.00
2023-02-11T14:44:15.642Z,6.00
2023-02-11T14:47:03.646Z,6.00
2023-02-11T14:49:52.036Z,5.90
2023-02-11T14:52:40.228Z,5.80
2023-02-11T14:55:34.262Z,5.80
2023-02-11T14:58:25.076Z,5.70
2023-02-11T15:01:28.331Z,5.70
2023-02-11T15:04:26.186Z,5.60
2023-02-11T15:07:15.565Z,5.60
2023-02-11T15:10:03.858Z,5.60
2023-02-11T15:12:51.748Z,5.50
2023-02-11T15:15:41.541Z,5.50
2023-02-11T15:18:35.453Z,5.50
2023-02-11T15:21:24.858Z,5.40
2023-02-11T15:24:25.459Z,5.40
2023-02-11T15:27:15.636Z,5.40
2023-02-11T15:30:03.470Z,5.40
2023-02-11T15:32:58.170Z,5.30
2023-02-11T15:35:45.900Z,5.30
2023-02-11T15:38:33.776Z,5.30
2023-02-11T15:41:36.836Z,5.30
2023-02-11T15:44:32.276Z,5.30
2023-02-11T15:47:22.622Z,5.30
2023-02-11T15:50:22.506Z,5.30
2023-02-11T15:53:27.071Z,5.30
2023-02-11T15:56:19.120Z,5.30
2023-02-11T15:59:13.890Z,5.20
2023-02-11T16:02:08.773Z,5.30
2023-02-11T16:04:58.130Z,5.30
2023-02-11T16:07:49.832Z,5.30
2023-02-11T16:10:37.572Z,5.30
2023-02-11T16:13:25.460Z,5.20
2023-02-11T16:16:20.734Z,5.20
2023-02-11T16:19:19.674Z,5.20
2023-02-11T16:22:12.107Z,5.20
2023-02-11T16:25:01.492Z,5.20
2023-02-11T16:27:52.571Z,5.10
2023-02-11T16:30:41.211Z,5.10
2023-02-11T16:33:28.808Z,5.20
2023-02-11T16:36:18.292Z,5.20
2023-02-11T16:39:06.002Z,5.20
2023-02-11T16:41:56.071Z,5.20
2023-02-11T16:44:43.595Z,5.20
2023-02-11T16:47:32.159Z,5.20
2023-02-11T16:50:23.254Z,5.20
2023-02-11T16:53:11.694Z,5.20
2023-02-11T16:55:59.045Z,5.20
2023-02-11T16:58:48.046Z,5.20
2023-02-11T17:01:36.938Z,5.20
2023-02-11T17:04:28.218Z,5.20
2023-02-11T17:07:15.838Z,5.20
2023-02-11T17:10:03.562Z,5.20
2023-02-11T17:12:52.604Z,5.30
2023-02-11T17:15:41.513Z,5.20
2023-02-11T17:18:29.550Z,5.20
2023-02-11T17:21:17.667Z,5.30
2023-02-11T17:24:05.475Z,5.30
2023-02-11T17:26:52.946Z,5.40
2023-02-11T17:29:40.652Z,5.30
2023-02-11T17:32:29.720Z,5.30
2023-02-11T17:35:17.814Z,5.30
2023-02-11T17:38:05.419Z,5.20
2023-02-11T17:40:58.995Z,5.20
2023-02-11T17:43:46.387Z,5.20
2023-02-11T17:46:36.042Z,5.30
2023-02-11T17:49:25.178Z,5.30
2023-02-11T17:52:12.806Z,5.20
2023-02-11T17:55:00.228Z,5.30
2023-02-11T17:57:47.674Z,5.30
2023-02-11T18:00:35.414Z,5.30
2023-02-11T18:03:22.743Z,5.30
2023-02-11T18:06:13.342Z,5.30
2023-02-11T18:09:02.502Z,5.30
2023-02-11T18:11:52.737Z,5.30
2023-02-11T18:14:41.605Z,5.30
2023-02-11T18:17:29.392Z,5.30
2023-02-11T18:20:16.947Z,5.30
2023-02-11T18:23:05.693Z,5.30
2023-02-11T18:25:53.520Z,5.30
2023-02-11T18:28:45.225Z,5.30
2023-02-11T18:31:35.349Z,5.30
2023-02-11T18:34:23.279Z,5.30
2023-02-11T18:37:11.678Z,5.30
2023-02-11T18:40:00.560Z,5.30
2023-02-11T18:42:48.306Z,5.30
2023-02-11T18:45:35.898Z,5.30
2023-02-11T18:48:23.488Z,5.30
2023-02-11T18:51:12.244Z,5.30
2023-02-11T18:54:01.344Z,5.30
2023-02-11T18:56:50.160Z,5.30
2023-02-11T18:59:38.234Z,5.30
2023-02-11T19:02:26.749Z,5.30
2023-02-11T19:05:14.242Z,5.30
2023-02-11T19:08:02.226Z,5.30
2023-02-11T19:10:50.054Z,5.30
2023-02-11T19:13:39.140Z,5.30
2023-02-11T19:16:26.826Z,5.30
2023-02-11T19:19:14.862Z,5.30
2023-02-11T19:22:03.218Z,5.30
2023-02-11T19:24:51.233Z,5.30
2023-02-11T19:27:41.789Z,5.30
2023-02-11T19:30:31.106Z,5.20
2023-02-11T19:33:18.742Z,5.30
2023-02-11T19:36:07.819Z,5.30
2023-02-11T19:38:55.596Z,5.20
2023-02-11T19:41:43.100Z,5.30
2023-02-11T19:44:30.842Z,5.30
2023-02-11T19:47:20.116Z,5.30
2023-02-11T19:50:08.782Z,5.30
2023-02-11T19:52:56.530Z,5.30
2023-02-11T19:55:44.287Z,5.40
2023-02-11T19:58:31.771Z,5.40
2023-02-11T20:01:21.660Z,5.40
2023-02-11T20:04:10.795Z,5.40
2023-02-11T20:06:58.818Z,5.40
2023-02-11T20:09:46.428Z,5.30
2023-02-11T20:12:33.893Z,5.30
2023-02-11T20:15:21.292Z,5.30
2023-02-11T20:18:09.005Z,5.40
2023-02-11T20:21:00.281Z,5.40
2023-02-11T20:23:49.929Z,5.40
2023-02-11T20:26:40.952Z,5.40
2023-02-11T20:29:31.168Z,5.40
2023-02-11T20:32:18.819Z,5.40
2023-02-11T20:35:07.289Z,5.40
2023-02-11T20:37:55.981Z,5.40
2023-02-11T20:40:44.205Z,5.30
2023-02-11T20:43:32.294Z,5.30
2023-02-11T20:46:22.505Z,5.40
2023-02-11T20:49:12.335Z,5.40
2023-02-11T20:51:59.843Z,5.40
2023-02-11T20:54:49.055Z,5.40
2023-02-11T20:57:36.639Z,5.40
2023-02-11T21:00:24.041Z,5.40
2023-02-11T21:03:11.706Z,5.40
2023-02-11T21:06:00.027Z,5.40
2023-02-11T21:08:48.371Z,5.40
2023-02-11T21:11:37.672Z,5.40
2023-02-11T21:14:26.604Z,5.40
2023-02-11T21:17:14.125Z,5.40
2023-02-11T21:20:01.513Z,5.40
2023-02-11T21:22:49.386Z,5.50
2023-02-11T21:25:36.995Z,5.50
2023-02-11T21:28:27.372Z,5.50
2023-02-11T21:31:21.590Z,5.50
2023-02-11T21:34:09.291Z,5.50
2023-02-11T21:36:56.947Z,5.50
2023-02-11T21:39:44.372Z,5.40
2023-02-11T21:42:32.252Z,5.40
2023-02-11T21:45:20.954Z,5.40
2023-02-11T21:48:08.452Z,5.40
2023-02-11T21:50:56.265Z,5.40
2023-02-11T21:53:43.903Z,5.30
2023-02-11T21:56:32.290Z,5.30
2023-02-11T21:59:19.918Z,5.30
2023-02-11T22:02:10.834Z,5.30
2023-02-11T22:04:58.595Z,5.30
2023-02-11T22:07:46.054Z,5.30
2023-02-11T22:10:33.808Z,5.20
2023-02-11T22:13:21.260Z,5.20
2023-02-11T22:16:10.736Z,5.20
2023-02-11T22:19:02.374Z,5.20
2023-02-11T22:21:50.270Z,5.20
2023-02-11T22:24:37.881Z,5.10
2023-02-11T22:27:25.446Z,5.20
2023-02-11T22:30:14.296Z,5.20
2023-02-11T22:33:04.172Z,5.20
2023-02-11T22:36:00.289Z,5.30
2023-02-11T22:38:48.259Z,5.30
2023-02-11T22:41:35.932Z,5.30
2023-02-11T22:44:24.105Z,5.30
2023-02-11T22:47:11.536Z,5.30
2023-02-11T22:49:59.266Z,5.30
2023-02-11T22:52:48.229Z,5.30
2023-02-11T22:55:38.261Z,5.30
2023-02-11T22:58:26.566Z,5.40
2023-02-11T23:01:15.084Z,5.40
2023-02-11T23:04:05.198Z,5.40
2023-02-11T23:06:52.643Z,5.40
2023-02-11T23:09:41.535Z,5.40
2023-02-11T23:12:28.844Z,5.40
2023-02-11T23:15:16.207Z,5.40
2023-02-11T23:18:04.073Z,5.40
2023-02-11T23:20:51.523Z,5.30
2023-02-11T23:23:39.109Z,5.30
2023-02-11T23:26:28.904Z,5.30
2023-02-11T23:29:16.489Z,5.30
2023-02-11T23:32:04.296Z,5.30
2023-02-11T23:34:52.754Z,5.30
2023-02-11T23:37:40.320Z,5.30
2023-02-11T23:40:27.734Z,5.30
2023-02-11T23:43:16.489Z,5.20
2023-02-11T23:46:04.189Z,5.20
2023-02-11T23:48:52.562Z,5.20
2023-02-11T23:51:40.084Z,5.20
2023-02-11T23:54:27.826Z,5.20
2023-02-11T23:57:15.375Z,5.20
